Terminal Aerodrome Forecast
Issued by NWS Brownsville, TX

Home | Current Version | Previous Version | Text Only | Print | Product List | Glossary On
Versions: 1 2 3 4 5 6 7 8 9 10 11 12 13 14 15
000
FTUS44 KBRO 162339
TAFBRO
TAF
KBRO 162339Z 1700/1724 15015G22KT P6SM FEW035
     FM170300 15011KT P6SM FEW025
     FM171500 15016G22KT P6SM SCT040=

USA.gov is the U.S. government's official web portal to all federal, state and local government web resources and services.